sensor_id;sensor_type;location;lat;lon;timestamp;P1;durP1;ratioP1;P2;durP2;ratioP2
20956;SDS011;10637;47.970;7.830;2023-04-03T00:01:58;11.47;;;6.40;;
20956;SDS011;10637;47.970;7.830;2023-04-03T00:07:00;10.70;;;6.17;;
20956;SDS011;10637;47.970;7.830;2023-04-03T00:12:02;10.33;;;6.10;;
20956;SDS011;10637;47.970;7.830;2023-04-03T00:17:04;11.83;;;6.13;;
20956;SDS011;10637;47.970;7.830;2023-04-03T00:22:06;13.10;;;6.60;;
20956;SDS011;10637;47.970;7.830;2023-04-03T00:27:07;9.83;;;5.63;;
20956;SDS011;10637;47.970;7.830;2023-04-03T00:32:09;11.47;;;6.30;;
20956;SDS011;10637;47.970;7.830;2023-04-03T00:37:11;12.90;;;6.27;;
20956;SDS011;10637;47.970;7.830;2023-04-03T00:42:13;10.57;;;6.27;;
20956;SDS011;10637;47.970;7.830;2023-04-03T00:47:16;10.27;;;6.00;;
20956;SDS011;10637;47.970;7.830;2023-04-03T00:52:20;11.03;;;6.37;;
20956;SDS011;10637;47.970;7.830;2023-04-03T00:57:24;9.80;;;5.60;;
20956;SDS011;10637;47.970;7.830;2023-04-03T01:02:26;11.40;;;6.20;;
20956;SDS011;10637;47.970;7.830;2023-04-03T01:07:29;11.93;;;6.03;;
20956;SDS011;10637;47.970;7.830;2023-04-03T01:12:33;9.63;;;5.57;;
20956;SDS011;10637;47.970;7.830;2023-04-03T01:17:38;9.87;;;5.93;;
20956;SDS011;10637;47.970;7.830;2023-04-03T01:28:03;10.20;;;5.40;;
20956;SDS011;10637;47.970;7.830;2023-04-03T01:33:06;11.23;;;5.90;;
20956;SDS011;10637;47.970;7.830;2023-04-03T01:38:08;10.43;;;5.73;;
20956;SDS011;10637;47.970;7.830;2023-04-03T01:43:10;9.60;;;5.20;;
20956;SDS011;10637;47.970;7.830;2023-04-03T01:48:12;10.03;;;5.53;;
20956;SDS011;10637;47.970;7.830;2023-04-03T01:53:14;9.50;;;5.40;;
20956;SDS011;10637;47.970;7.830;2023-04-03T01:58:16;10.57;;;5.43;;
20956;SDS011;10637;47.970;7.830;2023-04-03T02:03:18;10.10;;;5.17;;
20956;SDS011;10637;47.970;7.830;2023-04-03T02:08:20;9.03;;;4.80;;
20956;SDS011;10637;47.970;7.830;2023-04-03T02:13:22;10.83;;;5.30;;
20956;SDS011;10637;47.970;7.830;2023-04-03T02:18:24;9.80;;;4.70;;
20956;SDS011;10637;47.970;7.830;2023-04-03T02:23:26;9.23;;;5.13;;
20956;SDS011;10637;47.970;7.830;2023-04-03T02:28:27;10.97;;;5.20;;
20956;SDS011;10637;47.970;7.830;2023-04-03T02:33:29;11.00;;;5.50;;
20956;SDS011;10637;47.970;7.830;2023-04-03T02:38:31;10.93;;;5.50;;
20956;SDS011;10637;47.970;7.830;2023-04-03T02:43:34;11.07;;;5.50;;
20956;SDS011;10637;47.970;7.830;2023-04-03T02:48:36;13.23;;;5.50;;
20956;SDS011;10637;47.970;7.830;2023-04-03T02:53:38;10.27;;;5.40;;
20956;SDS011;10637;47.970;7.830;2023-04-03T02:58:40;11.00;;;5.53;;
20956;SDS011;10637;47.970;7.830;2023-04-03T03:03:41;12.20;;;5.90;;
20956;SDS011;10637;47.970;7.830;2023-04-03T03:08:43;10.03;;;5.67;;
20956;SDS011;10637;47.970;7.830;2023-04-03T03:13:45;11.17;;;6.43;;
20956;SDS011;10637;47.970;7.830;2023-04-03T03:18:47;11.20;;;5.80;;
20956;SDS011;10637;47.970;7.830;2023-04-03T03:23:49;13.67;;;6.50;;
20956;SDS011;10637;47.970;7.830;2023-04-03T03:28:51;13.00;;;6.30;;
20956;SDS011;10637;47.970;7.830;2023-04-03T03:33:52;13.70;;;6.60;;
20956;SDS011;10637;47.970;7.830;2023-04-03T03:38:54;10.83;;;5.90;;
20956;SDS011;10637;47.970;7.830;2023-04-03T03:43:56;12.83;;;6.20;;
20956;SDS011;10637;47.970;7.830;2023-04-03T03:48:58;11.00;;;5.83;;
20956;SDS011;10637;47.970;7.830;2023-04-03T03:54:00;10.53;;;5.93;;
20956;SDS011;10637;47.970;7.830;2023-04-03T03:59:02;12.67;;;6.10;;
20956;SDS011;10637;47.970;7.830;2023-04-03T04:04:04;10.07;;;5.83;;
20956;SDS011;10637;47.970;7.830;2023-04-03T04:09:06;12.10;;;5.90;;
20956;SDS011;10637;47.970;7.830;2023-04-03T04:14:07;9.90;;;5.33;;
20956;SDS011;10637;47.970;7.830;2023-04-03T04:19:11;9.00;;;5.23;;
20956;SDS011;10637;47.970;7.830;2023-04-03T04:24:13;11.57;;;5.90;;
20956;SDS011;10637;47.970;7.830;2023-04-03T04:29:15;11.10;;;5.70;;
20956;SDS011;10637;47.970;7.830;2023-04-03T04:34:17;9.33;;;5.63;;
20956;SDS011;10637;47.970;7.830;2023-04-03T04:39:19;10.33;;;5.47;;
20956;SDS011;10637;47.970;7.830;2023-04-03T04:44:21;9.40;;;5.53;;
20956;SDS011;10637;47.970;7.830;2023-04-03T04:49:22;9.57;;;5.40;;
20956;SDS011;10637;47.970;7.830;2023-04-03T04:54:24;9.63;;;4.80;;
20956;SDS011;10637;47.970;7.830;2023-04-03T04:59:26;8.83;;;5.17;;
20956;SDS011;10637;47.970;7.830;2023-04-03T05:04:28;10.30;;;5.23;;
20956;SDS011;10637;47.970;7.830;2023-04-03T05:09:30;9.40;;;5.43;;
20956;SDS011;10637;47.970;7.830;2023-04-03T05:14:31;10.20;;;5.67;;
20956;SDS011;10637;47.970;7.830;2023-04-03T05:19:33;8.90;;;5.40;;
20956;SDS011;10637;47.970;7.830;2023-04-03T05:24:35;10.07;;;5.33;;
20956;SDS011;10637;47.970;7.830;2023-04-03T05:29:37;9.70;;;5.10;;
20956;SDS011;10637;47.970;7.830;2023-04-03T05:34:38;9.67;;;5.40;;
20956;SDS011;10637;47.970;7.830;2023-04-03T05:39:40;10.57;;;5.23;;
20956;SDS011;10637;47.970;7.830;2023-04-03T05:44:42;9.13;;;5.40;;
20956;SDS011;10637;47.970;7.830;2023-04-03T05:49:44;9.73;;;5.53;;
20956;SDS011;10637;47.970;7.830;2023-04-03T05:54:46;10.80;;;6.20;;
20956;SDS011;10637;47.970;7.830;2023-04-03T05:59:49;10.33;;;5.70;;
20956;SDS011;10637;47.970;7.830;2023-04-03T06:04:51;10.47;;;5.63;;
20956;SDS011;10637;47.970;7.830;2023-04-03T06:09:54;10.83;;;6.03;;
20956;SDS011;10637;47.970;7.830;2023-04-03T06:14:56;10.40;;;6.13;;
20956;SDS011;10637;47.970;7.830;2023-04-03T06:19:59;9.43;;;5.47;;
20956;SDS011;10637;47.970;7.830;2023-04-03T06:25:01;10.07;;;5.90;;
20956;SDS011;10637;47.970;7.830;2023-04-03T06:30:04;11.00;;;5.77;;
20956;SDS011;10637;47.970;7.830;2023-04-03T06:35:07;10.43;;;5.23;;
20956;SDS011;10637;47.970;7.830;2023-04-03T06:40:18;10.83;;;5.90;;
20956;SDS011;10637;47.970;7.830;2023-04-03T06:45:23;9.43;;;5.00;;
20956;SDS011;10637;47.970;7.830;2023-04-03T06:50:26;10.30;;;4.47;;
20956;SDS011;10637;47.970;7.830;2023-04-03T06:55:28;8.60;;;4.30;;
20956;SDS011;10637;47.970;7.830;2023-04-03T07:00:30;9.70;;;5.07;;
20956;SDS011;10637;47.970;7.830;2023-04-03T07:05:32;8.43;;;4.20;;
20956;SDS011;10637;47.970;7.830;2023-04-03T07:10:34;8.60;;;3.77;;
20956;SDS011;10637;47.970;7.830;2023-04-03T07:15:35;7.27;;;3.63;;
20956;SDS011;10637;47.970;7.830;2023-04-03T07:20:38;7.27;;;3.97;;
20956;SDS011;10637;47.970;7.830;2023-04-03T07:25:43;7.73;;;3.43;;
20956;SDS011;10637;47.970;7.830;2023-04-03T07:30:48;7.43;;;3.63;;
20956;SDS011;10637;47.970;7.830;2023-04-03T07:35:51;8.80;;;4.20;;
20956;SDS011;10637;47.970;7.830;2023-04-03T07:40:54;8.63;;;4.40;;
20956;SDS011;10637;47.970;7.830;2023-04-03T07:45:55;8.80;;;4.50;;
20956;SDS011;10637;47.970;7.830;2023-04-03T07:51:01;8.17;;;4.40;;
20956;SDS011;10637;47.970;7.830;2023-04-03T07:56:05;7.90;;;4.07;;
20956;SDS011;10637;47.970;7.830;2023-04-03T08:01:07;8.63;;;4.00;;
20956;SDS011;10637;47.970;7.830;2023-04-03T08:06:09;8.80;;;5.13;;
20956;SDS011;10637;47.970;7.830;2023-04-03T08:11:16;8.70;;;4.77;;
20956;SDS011;10637;47.970;7.830;2023-04-03T08:16:20;10.77;;;5.10;;
20956;SDS011;10637;47.970;7.830;2023-04-03T08:21:24;9.60;;;4.70;;
20956;SDS011;10637;47.970;7.830;2023-04-03T08:26:27;10.03;;;5.33;;
20956;SDS011;10637;47.970;7.830;2023-04-03T08:31:29;10.13;;;4.87;;
20956;SDS011;10637;47.970;7.830;2023-04-03T08:36:30;9.60;;;4.97;;
20956;SDS011;10637;47.970;7.830;2023-04-03T08:46:42;9.40;;;5.47;;
20956;SDS011;10637;47.970;7.830;2023-04-03T08:51:55;9.87;;;5.70;;
20956;SDS011;10637;47.970;7.830;2023-04-03T08:56:59;10.30;;;5.57;;
20956;SDS011;10637;47.970;7.830;2023-04-03T09:02:12;9.90;;;5.47;;
20956;SDS011;10637;47.970;7.830;2023-04-03T09:07:33;8.83;;;5.20;;
20956;SDS011;10637;47.970;7.830;2023-04-03T09:12:57;9.87;;;5.43;;
20956;SDS011;10637;47.970;7.830;2023-04-03T09:23:27;16.57;;;8.80;;
20956;SDS011;10637;47.970;7.830;2023-04-03T09:28:52;12.37;;;6.90;;
20956;SDS011;10637;47.970;7.830;2023-04-03T09:33:58;10.43;;;5.57;;
20956;SDS011;10637;47.970;7.830;2023-04-03T09:39:05;9.23;;;5.17;;
20956;SDS011;10637;47.970;7.830;2023-04-03T09:44:18;9.00;;;5.07;;
20956;SDS011;10637;47.970;7.830;2023-04-03T09:49:23;10.90;;;5.60;;
20956;SDS011;10637;47.970;7.830;2023-04-03T09:54:36;8.63;;;4.20;;
20956;SDS011;10637;47.970;7.830;2023-04-03T10:00:01;9.17;;;4.17;;
20956;SDS011;10637;47.970;7.830;2023-04-03T10:05:51;8.07;;;3.90;;
20956;SDS011;10637;47.970;7.830;2023-04-03T10:10:30;9.37;;;3.93;;
20956;SDS011;10637;47.970;7.830;2023-04-03T10:15:36;11.73;;;3.93;;
20956;SDS011;10637;47.970;7.830;2023-04-03T10:20:47;8.23;;;3.50;;
20956;SDS011;10637;47.970;7.830;2023-04-03T10:47:20;7.20;;;3.30;;
20956;SDS011;10637;47.970;7.830;2023-04-03T10:57:33;6.97;;;3.20;;
20956;SDS011;10637;47.970;7.830;2023-04-03T11:02:37;7.77;;;3.50;;
20956;SDS011;10637;47.970;7.830;2023-04-03T11:08:04;7.87;;;3.67;;
20956;SDS011;10637;47.970;7.830;2023-04-03T11:13:19;8.57;;;3.87;;
20956;SDS011;10637;47.970;7.830;2023-04-03T11:18:28;8.03;;;3.50;;
20956;SDS011;10637;47.970;7.830;2023-04-03T11:23:46;7.63;;;3.47;;
20956;SDS011;10637;47.970;7.830;2023-04-03T11:28:53;7.30;;;3.30;;
20956;SDS011;10637;47.970;7.830;2023-04-03T11:34:08;7.83;;;3.40;;
20956;SDS011;10637;47.970;7.830;2023-04-03T11:55:01;8.80;;;3.83;;
20956;SDS011;10637;47.970;7.830;2023-04-03T12:00:45;8.93;;;3.60;;
20956;SDS011;10637;47.970;7.830;2023-04-03T12:05:43;8.17;;;3.67;;
20956;SDS011;10637;47.970;7.830;2023-04-03T12:11:13;7.00;;;3.50;;
20956;SDS011;10637;47.970;7.830;2023-04-03T12:47:49;7.60;;;3.70;;
20956;SDS011;10637;47.970;7.830;2023-04-03T12:52:57;7.90;;;3.60;;
20956;SDS011;10637;47.970;7.830;2023-04-03T12:58:17;8.50;;;3.80;;
20956;SDS011;10637;47.970;7.830;2023-04-03T13:03:23;8.27;;;4.10;;
20956;SDS011;10637;47.970;7.830;2023-04-03T13:08:28;8.00;;;3.83;;
20956;SDS011;10637;47.970;7.830;2023-04-03T13:13:31;12.43;;;3.77;;
20956;SDS011;10637;47.970;7.830;2023-04-03T13:18:34;8.87;;;3.60;;
20956;SDS011;10637;47.970;7.830;2023-04-03T13:23:38;9.87;;;4.00;;
20956;SDS011;10637;47.970;7.830;2023-04-03T13:28:44;8.00;;;3.57;;
20956;SDS011;10637;47.970;7.830;2023-04-03T13:34:06;8.93;;;3.63;;
20956;SDS011;10637;47.970;7.830;2023-04-03T13:39:20;8.30;;;3.77;;
20956;SDS011;10637;47.970;7.830;2023-04-03T13:44:27;7.87;;;3.37;;
20956;SDS011;10637;47.970;7.830;2023-04-03T13:49:38;8.60;;;3.73;;
20956;SDS011;10637;47.970;7.830;2023-04-03T13:54:42;7.27;;;3.40;;
20956;SDS011;10637;47.970;7.830;2023-04-03T13:59:48;8.13;;;3.73;;
20956;SDS011;10637;47.970;7.830;2023-04-03T14:04:55;8.37;;;4.07;;
20956;SDS011;10637;47.970;7.830;2023-04-03T14:10:02;7.70;;;3.47;;
20956;SDS011;10637;47.970;7.830;2023-04-03T14:15:06;8.70;;;3.57;;
20956;SDS011;10637;47.970;7.830;2023-04-03T14:20:18;9.57;;;3.50;;
20956;SDS011;10637;47.970;7.830;2023-04-03T14:25:22;10.27;;;4.20;;
20956;SDS011;10637;47.970;7.830;2023-04-03T14:30:28;8.77;;;3.80;;
20956;SDS011;10637;47.970;7.830;2023-04-03T14:35:33;13.83;;;6.00;;
20956;SDS011;10637;47.970;7.830;2023-04-03T14:40:35;10.93;;;5.13;;
20956;SDS011;10637;47.970;7.830;2023-04-03T14:45:37;9.77;;;4.97;;
20956;SDS011;10637;47.970;7.830;2023-04-03T14:50:40;8.77;;;3.80;;
20956;SDS011;10637;47.970;7.830;2023-04-03T14:55:54;7.80;;;3.03;;
20956;SDS011;10637;47.970;7.830;2023-04-03T15:00:56;8.03;;;3.60;;
20956;SDS011;10637;47.970;7.830;2023-04-03T15:05:58;9.73;;;4.10;;
20956;SDS011;10637;47.970;7.830;2023-04-03T15:11:00;8.23;;;3.90;;
20956;SDS011;10637;47.970;7.830;2023-04-03T15:16:02;7.70;;;3.67;;
20956;SDS011;10637;47.970;7.830;2023-04-03T15:21:05;8.20;;;3.87;;
20956;SDS011;10637;47.970;7.830;2023-04-03T15:26:07;8.17;;;3.57;;
20956;SDS011;10637;47.970;7.830;2023-04-03T15:31:09;9.73;;;3.83;;
20956;SDS011;10637;47.970;7.830;2023-04-03T15:36:11;8.63;;;3.90;;
20956;SDS011;10637;47.970;7.830;2023-04-03T15:41:17;8.93;;;3.93;;
20956;SDS011;10637;47.970;7.830;2023-04-03T15:46:19;8.70;;;4.03;;
20956;SDS011;10637;47.970;7.830;2023-04-03T15:51:21;7.60;;;3.70;;
20956;SDS011;10637;47.970;7.830;2023-04-03T15:56:22;8.33;;;3.67;;
20956;SDS011;10637;47.970;7.830;2023-04-03T16:01:24;8.47;;;3.70;;
20956;SDS011;10637;47.970;7.830;2023-04-03T16:06:26;8.90;;;3.87;;
20956;SDS011;10637;47.970;7.830;2023-04-03T16:11:30;8.63;;;3.70;;
20956;SDS011;10637;47.970;7.830;2023-04-03T16:16:32;8.17;;;3.73;;
20956;SDS011;10637;47.970;7.830;2023-04-03T16:21:34;8.17;;;3.73;;
20956;SDS011;10637;47.970;7.830;2023-04-03T16:26:36;9.33;;;3.80;;
20956;SDS011;10637;47.970;7.830;2023-04-03T16:31:38;8.17;;;3.23;;
20956;SDS011;10637;47.970;7.830;2023-04-03T16:36:40;7.50;;;3.10;;
20956;SDS011;10637;47.970;7.830;2023-04-03T16:41:42;8.50;;;3.60;;
20956;SDS011;10637;47.970;7.830;2023-04-03T16:46:43;8.57;;;3.50;;
20956;SDS011;10637;47.970;7.830;2023-04-03T16:51:48;8.97;;;3.60;;
20956;SDS011;10637;47.970;7.830;2023-04-03T16:56:50;8.93;;;3.33;;
20956;SDS011;10637;47.970;7.830;2023-04-03T17:01:52;9.27;;;4.20;;
20956;SDS011;10637;47.970;7.830;2023-04-03T17:06:54;8.20;;;3.20;;
20956;SDS011;10637;47.970;7.830;2023-04-03T17:11:56;8.10;;;3.57;;
20956;SDS011;10637;47.970;7.830;2023-04-03T17:16:58;8.27;;;3.57;;
20956;SDS011;10637;47.970;7.830;2023-04-03T17:22:00;9.67;;;3.63;;
20956;SDS011;10637;47.970;7.830;2023-04-03T17:27:02;7.93;;;3.33;;
20956;SDS011;10637;47.970;7.830;2023-04-03T17:32:04;8.97;;;3.97;;
20956;SDS011;10637;47.970;7.830;2023-04-03T17:37:06;9.53;;;4.23;;
20956;SDS011;10637;47.970;7.830;2023-04-03T17:42:08;8.97;;;3.70;;
20956;SDS011;10637;47.970;7.830;2023-04-03T17:47:10;9.40;;;3.80;;
20956;SDS011;10637;47.970;7.830;2023-04-03T17:52:12;8.13;;;3.50;;
20956;SDS011;10637;47.970;7.830;2023-04-03T17:57:14;9.07;;;3.70;;
20956;SDS011;10637;47.970;7.830;2023-04-03T18:02:16;11.07;;;4.90;;
20956;SDS011;10637;47.970;7.830;2023-04-03T18:07:18;9.87;;;3.73;;
20956;SDS011;10637;47.970;7.830;2023-04-03T18:12:20;9.93;;;3.93;;
20956;SDS011;10637;47.970;7.830;2023-04-03T18:17:22;10.47;;;3.90;;
20956;SDS011;10637;47.970;7.830;2023-04-03T18:22:24;9.67;;;4.17;;
20956;SDS011;10637;47.970;7.830;2023-04-03T18:27:27;9.57;;;3.50;;
20956;SDS011;10637;47.970;7.830;2023-04-03T18:32:29;7.80;;;3.57;;
20956;SDS011;10637;47.970;7.830;2023-04-03T18:37:30;7.30;;;3.20;;
20956;SDS011;10637;47.970;7.830;2023-04-03T18:42:32;14.43;;;3.60;;
20956;SDS011;10637;47.970;7.830;2023-04-03T18:47:34;9.53;;;3.50;;
20956;SDS011;10637;47.970;7.830;2023-04-03T18:52:37;9.53;;;3.97;;
20956;SDS011;10637;47.970;7.830;2023-04-03T18:57:39;7.73;;;3.60;;
20956;SDS011;10637;47.970;7.830;2023-04-03T19:02:41;9.80;;;4.10;;
20956;SDS011;10637;47.970;7.830;2023-04-03T19:07:43;9.33;;;3.50;;
20956;SDS011;10637;47.970;7.830;2023-04-03T19:12:45;9.47;;;4.23;;
20956;SDS011;10637;47.970;7.830;2023-04-03T19:17:48;9.53;;;3.80;;
20956;SDS011;10637;47.970;7.830;2023-04-03T19:22:50;9.87;;;4.00;;
20956;SDS011;10637;47.970;7.830;2023-04-03T19:27:52;10.10;;;4.03;;
20956;SDS011;10637;47.970;7.830;2023-04-03T19:32:54;9.80;;;3.73;;
20956;SDS011;10637;47.970;7.830;2023-04-03T19:37:56;11.50;;;4.43;;
20956;SDS011;10637;47.970;7.830;2023-04-03T19:42:58;9.63;;;4.60;;
20956;SDS011;10637;47.970;7.830;2023-04-03T19:48:00;8.73;;;3.87;;
20956;SDS011;10637;47.970;7.830;2023-04-03T19:53:01;10.47;;;4.43;;
20956;SDS011;10637;47.970;7.830;2023-04-03T19:58:03;9.57;;;4.07;;
20956;SDS011;10637;47.970;7.830;2023-04-03T20:03:05;9.30;;;4.20;;
20956;SDS011;10637;47.970;7.830;2023-04-03T20:08:07;9.43;;;4.00;;
20956;SDS011;10637;47.970;7.830;2023-04-03T20:13:09;12.37;;;5.10;;
20956;SDS011;10637;47.970;7.830;2023-04-03T20:18:13;10.93;;;4.90;;
20956;SDS011;10637;47.970;7.830;2023-04-03T20:23:19;11.03;;;4.63;;
20956;SDS011;10637;47.970;7.830;2023-04-03T20:28:22;13.13;;;6.00;;
20956;SDS011;10637;47.970;7.830;2023-04-03T20:33:24;14.00;;;6.03;;
20956;SDS011;10637;47.970;7.830;2023-04-03T20:38:26;10.60;;;5.50;;
20956;SDS011;10637;47.970;7.830;2023-04-03T20:43:28;12.30;;;5.37;;
20956;SDS011;10637;47.970;7.830;2023-04-03T20:48:30;11.10;;;5.93;;
20956;SDS011;10637;47.970;7.830;2023-04-03T20:53:32;13.63;;;5.57;;
20956;SDS011;10637;47.970;7.830;2023-04-03T20:58:35;12.57;;;5.87;;
20956;SDS011;10637;47.970;7.830;2023-04-03T21:03:39;12.70;;;5.10;;
20956;SDS011;10637;47.970;7.830;2023-04-03T21:20:01;12.93;;;5.87;;
20956;SDS011;10637;47.970;7.830;2023-04-03T21:25:03;12.37;;;5.70;;
20956;SDS011;10637;47.970;7.830;2023-04-03T21:30:05;12.67;;;5.40;;
20956;SDS011;10637;47.970;7.830;2023-04-03T21:35:08;11.77;;;5.40;;
20956;SDS011;10637;47.970;7.830;2023-04-03T21:40:09;10.70;;;6.17;;
20956;SDS011;10637;47.970;7.830;2023-04-03T21:45:11;11.97;;;6.03;;
20956;SDS011;10637;47.970;7.830;2023-04-03T21:50:16;12.07;;;5.20;;
20956;SDS011;10637;47.970;7.830;2023-04-03T21:55:19;9.53;;;4.87;;
20956;SDS011;10637;47.970;7.830;2023-04-03T22:00:21;14.98;;;5.65;;
20956;SDS011;10637;47.970;7.830;2023-04-03T22:05:23;11.77;;;5.77;;
20956;SDS011;10637;47.970;7.830;2023-04-03T22:10:25;10.40;;;4.57;;
20956;SDS011;10637;47.970;7.830;2023-04-03T22:15:26;12.03;;;5.27;;
20956;SDS011;10637;47.970;7.830;2023-04-03T22:20:28;11.07;;;5.60;;
20956;SDS011;10637;47.970;7.830;2023-04-03T22:25:31;12.23;;;5.23;;
20956;SDS011;10637;47.970;7.830;2023-04-03T22:30:33;9.93;;;4.37;;
20956;SDS011;10637;47.970;7.830;2023-04-03T22:35:34;11.13;;;4.70;;
20956;SDS011;10637;47.970;7.830;2023-04-03T22:40:36;9.13;;;4.60;;
20956;SDS011;10637;47.970;7.830;2023-04-03T22:45:45;10.47;;;4.80;;
20956;SDS011;10637;47.970;7.830;2023-04-03T22:50:48;11.23;;;5.30;;
20956;SDS011;10637;47.970;7.830;2023-04-03T22:55:55;11.67;;;4.97;;
20956;SDS011;10637;47.970;7.830;2023-04-03T23:01:05;11.17;;;4.43;;
20956;SDS011;10637;47.970;7.830;2023-04-03T23:06:10;9.60;;;4.20;;
20956;SDS011;10637;47.970;7.830;2023-04-03T23:11:13;9.97;;;5.00;;
20956;SDS011;10637;47.970;7.830;2023-04-03T23:16:15;10.90;;;4.90;;
20956;SDS011;10637;47.970;7.830;2023-04-03T23:21:17;10.73;;;4.60;;
20956;SDS011;10637;47.970;7.830;2023-04-03T23:26:19;10.47;;;4.50;;
20956;SDS011;10637;47.970;7.830;2023-04-03T23:31:21;13.13;;;4.63;;
20956;SDS011;10637;47.970;7.830;2023-04-03T23:36:23;8.93;;;4.50;;
20956;SDS011;10637;47.970;7.830;2023-04-03T23:41:25;10.93;;;4.60;;
20956;SDS011;10637;47.970;7.830;2023-04-03T23:46:27;11.43;;;4.80;;
20956;SDS011;10637;47.970;7.830;2023-04-03T23:51:28;9.80;;;4.80;;
20956;SDS011;10637;47.970;7.830;2023-04-03T23:56:30;11.47;;;5.23;;
